createdAt,value
2018-12-14T00:00:15.951Z,62.40
2018-12-14T00:02:44.034Z,62.40
2018-12-14T00:05:12.104Z,62.50
2018-12-14T00:07:40.185Z,62.10
2018-12-14T00:10:08.257Z,62.00
2018-12-14T00:12:36.816Z,61.80
2018-12-14T00:15:05.793Z,61.50
2018-12-14T00:17:33.857Z,61.30
2018-12-14T00:20:01.933Z,61.10
2018-12-14T00:22:30.309Z,60.90
2018-12-14T00:24:58.388Z,60.60
2018-12-14T00:27:26.708Z,60.60
2018-12-14T00:29:55.061Z,60.40
2018-12-14T00:32:23.134Z,60.40
2018-12-14T00:34:51.706Z,60.80
2018-12-14T00:37:19.762Z,60.10
2018-12-14T00:39:47.822Z,60.00
2018-12-14T00:42:16.108Z,60.00
2018-12-14T00:44:44.163Z,59.90
2018-12-14T00:47:12.228Z,60.00
2018-12-14T00:49:41.019Z,60.00
2018-12-14T00:52:09.084Z,60.00
2018-12-14T00:54:37.156Z,60.00
2018-12-14T00:57:05.585Z,60.00
2018-12-14T00:59:33.653Z,60.10
2018-12-14T01:02:01.732Z,60.10
2018-12-14T01:04:29.812Z,60.90
2018-12-14T01:06:57.901Z,60.20
2018-12-14T01:09:26.013Z,60.30
2018-12-14T01:11:58.227Z,60.30
2018-12-14T01:14:24.136Z,60.20
2018-12-14T01:16:52.200Z,60.00
2018-12-14T01:19:20.797Z,59.90
2018-12-14T01:21:48.906Z,60.00
2018-12-14T01:24:16.961Z,60.00
2018-12-14T01:26:45.033Z,60.00
2018-12-14T01:29:13.096Z,60.70
2018-12-14T01:31:41.166Z,59.90
2018-12-14T01:34:09.235Z,60.00
2018-12-14T01:36:37.293Z,59.80
2018-12-14T01:39:06.662Z,59.80
2018-12-14T01:41:35.076Z,60.00
2018-12-14T01:44:03.149Z,59.90
2018-12-14T01:46:31.292Z,59.60
2018-12-14T01:48:59.382Z,60.00
2018-12-14T01:51:27.671Z,60.00
2018-12-14T01:53:55.730Z,59.90
2018-12-14T01:56:23.813Z,59.90
2018-12-14T01:58:51.869Z,59.80
2018-12-14T02:01:19.956Z,59.80
2018-12-14T02:03:48.335Z,59.80
2018-12-14T02:06:16.406Z,59.80
2018-12-14T02:08:44.469Z,59.80
2018-12-14T02:11:12.543Z,59.80
2018-12-14T02:13:41.232Z,59.80
2018-12-14T02:16:09.319Z,59.50
2018-12-14T02:18:37.375Z,59.60
2018-12-14T02:21:05.551Z,59.50
2018-12-14T02:23:33.610Z,59.60
2018-12-14T02:26:01.900Z,59.50
2018-12-14T02:28:30.052Z,59.40
2018-12-14T02:30:58.134Z,59.50
2018-12-14T02:33:26.215Z,60.10
2018-12-14T02:35:54.282Z,59.70
2018-12-14T02:38:22.356Z,59.80
2018-12-14T02:40:50.462Z,59.70
2018-12-14T02:43:19.937Z,59.70
2018-12-14T02:45:48.006Z,59.80
2018-12-14T02:48:16.405Z,60.40
2018-12-14T02:50:44.493Z,59.20
2018-12-14T02:53:12.909Z,59.70
2018-12-14T02:55:41.028Z,59.60
2018-12-14T02:58:09.083Z,59.60
2018-12-14T03:00:37.153Z,60.10
2018-12-14T03:03:05.232Z,59.60
2018-12-14T03:05:33.352Z,60.20
2018-12-14T03:08:01.424Z,59.70
2018-12-14T03:10:29.822Z,59.60
2018-12-14T03:12:57.891Z,59.50
2018-12-14T03:15:26.013Z,59.50
2018-12-14T03:17:54.076Z,59.40
2018-12-14T03:20:22.141Z,59.40
2018-12-14T03:22:50.240Z,59.40
2018-12-14T03:25:18.369Z,59.40
2018-12-14T03:27:46.425Z,59.50
2018-12-14T03:30:14.501Z,59.50
2018-12-14T03:32:42.913Z,59.40
2018-12-14T03:35:11.082Z,59.40
2018-12-14T03:37:39.144Z,59.50
2018-12-14T03:40:07.553Z,59.50
2018-12-14T03:42:35.614Z,59.50
2018-12-14T03:45:03.870Z,59.50
2018-12-14T03:47:31.953Z,59.80
2018-12-14T03:50:00.019Z,59.50
2018-12-14T03:52:28.090Z,59.60
2018-12-14T03:54:56.207Z,59.60
2018-12-14T03:57:24.282Z,59.50
2018-12-14T03:59:52.353Z,59.60
2018-12-14T04:02:20.442Z,59.50
2018-12-14T04:04:48.512Z,59.50
2018-12-14T04:07:16.575Z,59.60
2018-12-14T04:09:44.654Z,59.50
2018-12-14T04:12:12.729Z,59.50
2018-12-14T04:14:40.805Z,59.50
2018-12-14T04:17:09.342Z,59.50
2018-12-14T04:19:37.502Z,59.60
2018-12-14T04:22:05.600Z,59.60
2018-12-14T04:24:33.883Z,59.50
2018-12-14T04:27:01.962Z,59.50
2018-12-14T04:29:30.029Z,59.60
2018-12-14T04:31:58.877Z,59.50
2018-12-14T04:34:26.957Z,60.10
2018-12-14T04:36:55.050Z,59.60
2018-12-14T04:39:23.266Z,59.70
2018-12-14T04:41:51.336Z,59.60
2018-12-14T04:44:19.412Z,59.30
2018-12-14T04:46:47.739Z,59.30
2018-12-14T04:49:15.823Z,59.30
2018-12-14T04:51:43.884Z,59.30
2018-12-14T04:54:12.084Z,59.40
2018-12-14T04:56:40.293Z,59.80
2018-12-14T04:59:08.368Z,59.60
2018-12-14T05:01:36.880Z,59.60
2018-12-14T05:04:04.950Z,59.70
2018-12-14T05:06:33.040Z,59.80
2018-12-14T05:09:01.121Z,60.00
2018-12-14T05:11:29.188Z,60.00
2018-12-14T05:13:57.251Z,60.00
2018-12-14T05:16:25.364Z,60.00
2018-12-14T05:18:53.665Z,60.00
2018-12-14T05:21:21.876Z,60.00
2018-12-14T05:23:50.403Z,60.10
2018-12-14T05:26:18.483Z,60.10
2018-12-14T05:28:46.543Z,60.10
2018-12-14T05:31:14.648Z,60.20
2018-12-14T05:33:42.712Z,61.00
2018-12-14T05:36:10.828Z,60.50
2018-12-14T05:38:38.905Z,60.50
2018-12-14T05:41:06.982Z,60.50
2018-12-14T05:43:35.049Z,60.50
2018-12-14T05:46:03.503Z,60.40
2018-12-14T05:48:31.572Z,60.50
2018-12-14T05:50:59.644Z,60.60
2018-12-14T05:53:27.728Z,60.40
2018-12-14T05:55:55.804Z,60.30
2018-12-14T05:58:24.028Z,60.40
2018-12-14T06:00:52.112Z,60.50
2018-12-14T06:03:20.184Z,60.40
2018-12-14T06:05:48.279Z,60.40
2018-12-14T06:08:16.672Z,60.50
2018-12-14T06:10:44.744Z,60.60
2018-12-14T06:13:12.839Z,60.70
2018-12-14T06:15:40.928Z,60.60
2018-12-14T06:18:09.027Z,60.60
2018-12-14T06:20:37.102Z,60.70
2018-12-14T06:23:05.167Z,60.80
2018-12-14T06:25:33.368Z,60.90
2018-12-14T06:28:01.443Z,60.90
2018-12-14T06:30:29.814Z,61.80
2018-12-14T06:32:57.900Z,61.90
2018-12-14T06:35:25.977Z,61.20
2018-12-14T06:37:54.134Z,61.20
2018-12-14T06:40:22.186Z,61.40
2018-12-14T06:42:50.348Z,61.30
2018-12-14T06:45:18.524Z,61.30
2018-12-14T06:47:46.596Z,61.30
2018-12-14T06:50:14.661Z,61.10
2018-12-14T06:52:42.776Z,61.00
2018-12-14T06:55:10.848Z,61.00
2018-12-14T06:57:38.941Z,60.90
2018-12-14T07:00:08.470Z,60.90
2018-12-14T07:02:36.564Z,60.90
2018-12-14T07:05:04.724Z,61.00
2018-12-14T07:07:32.804Z,61.00
2018-12-14T07:10:00.863Z,61.00
2018-12-14T07:12:28.941Z,60.90
2018-12-14T07:14:57.360Z,60.90
2018-12-14T07:17:25.437Z,60.80
2018-12-14T07:19:53.501Z,60.00
2018-12-14T07:22:21.577Z,60.40
2018-12-14T07:24:49.643Z,60.50
2018-12-14T07:27:17.715Z,60.50
2018-12-14T07:29:45.805Z,60.40
2018-12-14T07:32:13.883Z,60.30
2018-12-14T07:34:41.977Z,60.40
2018-12-14T07:37:10.144Z,60.30
2018-12-14T07:39:38.212Z,60.20
2018-12-14T07:42:06.296Z,60.20
2018-12-14T07:44:34.514Z,60.20
2018-12-14T07:47:02.755Z,60.00
2018-12-14T07:49:30.829Z,60.00
2018-12-14T07:51:58.903Z,60.00
2018-12-14T07:54:26.968Z,59.90
2018-12-14T07:56:55.683Z,60.00
2018-12-14T07:59:24.595Z,59.90
2018-12-14T08:01:52.740Z,59.80
2018-12-14T08:04:20.812Z,59.80
2018-12-14T08:06:48.880Z,59.60
2018-12-14T08:09:17.054Z,59.70
2018-12-14T08:11:45.124Z,59.50
2018-12-14T08:14:13.202Z,59.50
2018-12-14T08:16:41.279Z,59.50
2018-12-14T08:19:09.381Z,59.40
2018-12-14T08:21:37.797Z,59.30
2018-12-14T08:24:05.864Z,59.50
2018-12-14T08:26:33.983Z,59.40
2018-12-14T08:29:02.048Z,59.40
2018-12-14T08:31:30.143Z,59.40
2018-12-14T08:33:58.212Z,59.40
2018-12-14T08:36:26.298Z,59.40
2018-12-14T08:38:54.402Z,59.40
2018-12-14T08:41:22.491Z,59.30
2018-12-14T08:43:51.020Z,59.30
2018-12-14T08:46:19.101Z,59.20
2018-12-14T08:48:47.172Z,59.30
2018-12-14T08:51:15.740Z,59.30
2018-12-14T08:53:43.832Z,59.20
2018-12-14T08:56:11.904Z,59.20
2018-12-14T08:58:39.981Z,59.20
2018-12-14T09:01:08.062Z,59.70
2018-12-14T09:03:36.475Z,59.10
2018-12-14T09:06:04.791Z,59.10
2018-12-14T09:08:32.865Z,59.10
2018-12-14T09:11:00.932Z,59.00
2018-12-14T09:13:29.093Z,59.10
2018-12-14T09:18:31.681Z,59.00
2018-12-14T09:21:01.173Z,58.90
2018-12-14T09:23:29.510Z,58.90
2018-12-14T09:25:58.170Z,58.90
2018-12-14T09:28:26.240Z,58.70
2018-12-14T09:30:54.311Z,58.70
2018-12-14T09:33:22.388Z,58.50
2018-12-14T09:35:50.460Z,58.50
2018-12-14T09:38:18.531Z,58.40
2018-12-14T09:40:46.609Z,58.40
2018-12-14T09:43:14.672Z,58.50
2018-12-14T09:45:42.744Z,58.60
2018-12-14T09:48:11.128Z,59.00
2018-12-14T09:50:39.196Z,58.30
2018-12-14T09:53:07.271Z,58.30
2018-12-14T09:55:35.357Z,58.20
2018-12-14T09:58:03.436Z,58.00
2018-12-14T10:00:31.509Z,58.00
2018-12-14T10:02:59.614Z,58.00
2018-12-14T10:05:27.676Z,58.10
2018-12-14T10:07:55.744Z,57.90
2018-12-14T10:10:24.284Z,57.80
2018-12-14T10:12:52.349Z,57.80
2018-12-14T10:15:20.436Z,57.70
2018-12-14T10:17:48.504Z,57.80
2018-12-14T10:20:16.668Z,57.60
2018-12-14T10:22:44.736Z,57.20
2018-12-14T10:25:12.804Z,57.50
2018-12-14T10:27:40.908Z,57.30
2018-12-14T10:30:09.806Z,57.20
2018-12-14T10:32:38.187Z,57.00
2018-12-14T10:35:10.139Z,56.80
2018-12-14T10:37:38.216Z,56.80
2018-12-14T10:40:11.308Z,56.70
2018-12-14T10:42:39.359Z,56.60
2018-12-14T10:45:08.386Z,56.30
2018-12-14T10:47:36.447Z,56.00
2018-12-14T10:50:05.074Z,55.90
2018-12-14T10:52:33.233Z,55.80
2018-12-14T10:55:01.661Z,55.60
2018-12-14T10:57:29.933Z,55.50
2018-12-14T10:59:58.000Z,56.00
2018-12-14T11:02:26.061Z,55.40
2018-12-14T11:04:54.125Z,55.40
2018-12-14T11:07:22.605Z,55.30
2018-12-14T11:09:50.673Z,55.20
2018-12-14T11:12:18.728Z,55.20
2018-12-14T11:14:46.801Z,55.00
2018-12-14T11:17:15.336Z,54.90
2018-12-14T11:19:43.410Z,54.90
2018-12-14T11:22:11.488Z,54.80
2018-12-14T11:24:39.562Z,54.70
2018-12-14T11:27:07.620Z,54.70
2018-12-14T11:29:35.683Z,54.50
2018-12-14T11:32:03.760Z,54.40
2018-12-14T11:34:31.834Z,54.40
2018-12-14T11:36:59.912Z,54.30
2018-12-14T11:39:28.276Z,54.40
2018-12-14T11:41:56.454Z,54.40
2018-12-14T11:44:24.539Z,54.20
2018-12-14T11:46:52.624Z,54.20
2018-12-14T11:49:20.686Z,54.20
2018-12-14T11:51:48.752Z,54.10
2018-12-14T11:54:17.506Z,54.20
2018-12-14T11:56:45.784Z,54.10
2018-12-14T11:59:13.847Z,54.50
2018-12-14T12:01:42.263Z,53.90
2018-12-14T12:04:10.347Z,54.10
2018-12-14T12:06:38.404Z,54.00
2018-12-14T12:09:08.743Z,54.00
2018-12-14T12:11:36.808Z,53.80
2018-12-14T12:14:04.891Z,53.70
2018-12-14T12:16:32.962Z,53.70
2018-12-14T12:19:01.037Z,53.60
2018-12-14T12:21:29.199Z,53.70
2018-12-14T12:23:57.765Z,53.60
2018-12-14T12:26:25.831Z,53.40
2018-12-14T12:28:53.888Z,53.40
2018-12-14T12:31:22.004Z,53.70
2018-12-14T12:33:50.066Z,53.50
2018-12-14T12:36:18.116Z,53.40
2018-12-14T12:38:46.195Z,53.40
2018-12-14T12:41:14.245Z,53.40
2018-12-14T12:43:42.308Z,53.20
2018-12-14T12:46:10.775Z,53.10
2018-12-14T12:48:39.297Z,52.80
2018-12-14T12:51:07.389Z,52.50
2018-12-14T12:53:35.448Z,52.70
2018-12-14T12:56:03.629Z,52.80
2018-12-14T12:58:31.693Z,52.80
2018-12-14T13:00:59.802Z,53.00
2018-12-14T13:03:27.877Z,52.80
2018-12-14T13:05:55.941Z,53.00
2018-12-14T13:08:24.191Z,53.10
2018-12-14T13:10:52.522Z,53.30
2018-12-14T13:13:20.585Z,53.40
2018-12-14T13:15:48.664Z,53.40
2018-12-14T13:18:16.722Z,53.40
2018-12-14T13:20:44.794Z,53.50
2018-12-14T13:23:12.862Z,53.70
2018-12-14T13:25:40.925Z,53.60
2018-12-14T13:28:09.201Z,53.20
2018-12-14T13:30:38.160Z,53.00
2018-12-14T13:33:06.224Z,52.90
2018-12-14T13:35:34.327Z,52.90
2018-12-14T13:38:02.390Z,53.00
2018-12-14T13:40:30.455Z,52.80
2018-12-14T13:42:58.523Z,52.50
2018-12-14T13:45:26.648Z,52.50
2018-12-14T13:47:54.844Z,52.60
2018-12-14T13:50:23.007Z,52.70
2018-12-14T13:52:51.321Z,52.50
2018-12-14T13:55:19.374Z,52.50
2018-12-14T13:57:47.436Z,52.50
2018-12-14T14:00:15.504Z,52.50
2018-12-14T14:02:43.573Z,52.50
2018-12-14T14:05:11.627Z,52.70
2018-12-14T14:07:39.703Z,52.80
2018-12-14T14:10:07.772Z,52.80
2018-12-14T14:12:36.065Z,53.10
2018-12-14T14:15:07.457Z,53.30
2018-12-14T14:17:35.562Z,53.40
2018-12-14T14:20:06.665Z,53.70
2018-12-14T14:22:34.728Z,54.00
2018-12-14T14:25:02.784Z,54.10
2018-12-14T14:27:30.862Z,54.40
2018-12-14T14:29:58.952Z,54.60
2018-12-14T14:32:27.039Z,54.70
2018-12-14T14:34:55.109Z,55.30
2018-12-14T14:37:23.577Z,55.20
2018-12-14T14:39:51.644Z,55.50
2018-12-14T14:42:19.716Z,55.80
2018-12-14T14:44:47.785Z,55.90
2018-12-14T14:47:15.853Z,56.10
2018-12-14T14:49:43.919Z,56.20
2018-12-14T14:52:12.000Z,56.40
2018-12-14T14:54:40.079Z,56.60
2018-12-14T14:57:08.151Z,56.70
2018-12-14T14:59:36.266Z,56.90
2018-12-14T15:02:04.335Z,57.00
2018-12-14T15:04:32.407Z,57.10
2018-12-14T15:07:00.487Z,57.20
2018-12-14T15:09:28.569Z,57.30
2018-12-14T15:11:56.650Z,57.30
2018-12-14T15:14:25.149Z,57.50
2018-12-14T15:16:53.224Z,57.60
2018-12-14T15:19:21.293Z,57.60
2018-12-14T15:21:49.874Z,57.70
2018-12-14T15:24:17.943Z,57.90
2018-12-14T15:26:46.007Z,57.90
2018-12-14T15:29:14.082Z,58.10
2018-12-14T15:31:43.251Z,58.00
2018-12-14T15:34:14.341Z,58.00
2018-12-14T15:36:41.380Z,58.10
2018-12-14T15:39:09.460Z,58.10
2018-12-14T15:41:37.542Z,58.20
2018-12-14T15:44:06.193Z,58.30
2018-12-14T15:46:34.264Z,58.40
2018-12-14T15:49:02.341Z,58.40
2018-12-14T15:51:30.425Z,58.50
2018-12-14T15:53:58.505Z,58.50
2018-12-14T15:56:26.576Z,58.40
2018-12-14T15:58:54.647Z,58.40
2018-12-14T16:01:22.711Z,59.00
2018-12-14T16:03:50.780Z,58.50
2018-12-14T16:06:19.168Z,58.50
2018-12-14T16:08:47.235Z,58.60
2018-12-14T16:11:15.311Z,58.60
2018-12-14T16:13:43.426Z,58.60
2018-12-14T16:16:11.747Z,58.70
2018-12-14T16:18:39.830Z,58.80
2018-12-14T16:21:08.007Z,58.80
2018-12-14T16:23:36.175Z,58.70
2018-12-14T16:26:04.282Z,59.30
2018-12-14T16:28:32.543Z,58.90
2018-12-14T16:31:00.613Z,59.00
2018-12-14T16:33:28.682Z,59.10
2018-12-14T16:35:56.752Z,58.90
2018-12-14T16:38:24.824Z,58.90
2018-12-14T16:40:52.897Z,58.90
2018-12-14T16:43:20.969Z,59.00
2018-12-14T16:45:49.053Z,59.10
2018-12-14T16:48:17.112Z,59.20
2018-12-14T16:50:45.640Z,59.20
2018-12-14T16:53:13.709Z,59.20
2018-12-14T16:55:41.781Z,59.20
2018-12-14T16:58:09.863Z,59.20
2018-12-14T17:00:37.924Z,59.30
2018-12-14T17:03:05.991Z,59.40
2018-12-14T17:05:34.098Z,59.40
2018-12-14T17:08:02.168Z,59.40
2018-12-14T17:10:30.242Z,59.40
2018-12-14T17:12:58.554Z,59.50
2018-12-14T17:15:33.044Z,59.50
2018-12-14T17:17:56.719Z,59.50
2018-12-14T17:20:26.404Z,59.40
2018-12-14T17:22:54.475Z,59.50
2018-12-14T17:25:22.545Z,59.50
2018-12-14T17:27:50.626Z,59.50
2018-12-14T17:30:18.693Z,59.50
2018-12-14T17:32:46.764Z,59.60
2018-12-14T17:35:15.192Z,59.60
2018-12-14T17:37:43.255Z,59.60
2018-12-14T17:40:11.338Z,59.70
2018-12-14T17:42:39.448Z,59.60
2018-12-14T17:45:07.921Z,59.70
2018-12-14T17:47:36.000Z,59.70
2018-12-14T17:50:06.480Z,59.90
2018-12-14T17:52:34.544Z,59.90
2018-12-14T17:55:02.616Z,59.90
2018-12-14T17:57:30.735Z,59.90
2018-12-14T17:59:58.798Z,59.90
2018-12-14T18:02:26.874Z,59.90
2018-12-14T18:04:54.940Z,60.00
2018-12-14T18:07:23.014Z,60.00
2018-12-14T18:09:51.094Z,60.00
2018-12-14T18:12:19.238Z,59.90
2018-12-14T18:14:47.349Z,59.90
2018-12-14T18:17:15.420Z,59.90
2018-12-14T18:19:44.064Z,60.00
2018-12-14T18:22:12.150Z,60.00
2018-12-14T18:24:40.213Z,60.10
2018-12-14T18:27:08.287Z,60.10
2018-12-14T18:29:36.373Z,60.20
2018-12-14T18:32:04.456Z,60.10
2018-12-14T18:34:32.538Z,60.00
2018-12-14T18:37:00.621Z,60.10
2018-12-14T18:39:28.699Z,60.20
2018-12-14T18:41:56.886Z,60.10
2018-12-14T18:44:24.942Z,60.20
2018-12-14T18:46:53.014Z,60.20
2018-12-14T18:49:21.121Z,60.20
2018-12-14T18:51:49.185Z,60.20
2018-12-14T18:54:17.263Z,60.30
2018-12-14T18:56:45.350Z,60.40
2018-12-14T18:59:13.808Z,60.40
2018-12-14T19:01:43.098Z,60.90
2018-12-14T19:04:11.726Z,60.40
2018-12-14T19:06:39.846Z,60.30
2018-12-14T19:09:07.907Z,60.40
2018-12-14T19:11:35.988Z,60.40
2018-12-14T19:14:04.059Z,60.40
2018-12-14T19:16:32.179Z,60.30
2018-12-14T19:19:00.263Z,60.20
2018-12-14T19:21:28.537Z,60.40
2018-12-14T19:23:56.604Z,60.60
2018-12-14T19:26:24.758Z,60.60
2018-12-14T19:28:52.817Z,60.70
2018-12-14T19:31:20.915Z,60.60
2018-12-14T19:33:48.991Z,60.70
2018-12-14T19:36:17.273Z,60.80
2018-12-14T19:38:45.341Z,60.90
2018-12-14T19:41:13.432Z,60.80
2018-12-14T19:43:41.496Z,60.80
2018-12-14T19:46:09.573Z,60.80
2018-12-14T19:48:37.927Z,60.70
2018-12-14T19:51:06.005Z,60.70
2018-12-14T19:53:34.068Z,60.70
2018-12-14T19:56:02.163Z,60.60
2018-12-14T19:58:30.233Z,60.60
2018-12-14T20:00:58.305Z,60.60
2018-12-14T20:03:26.401Z,60.60
2018-12-14T20:05:54.470Z,60.40
2018-12-14T20:08:22.535Z,60.40
2018-12-14T20:10:50.978Z,60.40
2018-12-14T20:13:19.044Z,60.40
2018-12-14T20:15:47.113Z,60.30
2018-12-14T20:18:15.188Z,60.50
2018-12-14T20:20:43.252Z,60.60
2018-12-14T20:23:11.511Z,60.60
2018-12-14T20:25:39.601Z,60.70
2018-12-14T20:28:07.674Z,60.50
2018-12-14T20:30:35.736Z,60.50
2018-12-14T20:33:04.261Z,60.40
2018-12-14T20:35:32.546Z,60.40
2018-12-14T20:38:00.903Z,60.30
2018-12-14T20:40:28.984Z,60.40
2018-12-14T20:42:57.065Z,60.40
2018-12-14T20:45:25.139Z,60.40
2018-12-14T20:47:53.229Z,60.10
2018-12-14T20:50:21.285Z,60.10
2018-12-14T20:52:49.386Z,60.10
2018-12-14T20:55:17.743Z,60.10
2018-12-14T20:57:45.815Z,60.10
2018-12-14T21:00:13.892Z,60.20
2018-12-14T21:02:41.978Z,60.20
2018-12-14T21:05:10.052Z,60.30
2018-12-14T21:07:38.124Z,60.10
2018-12-14T21:10:07.811Z,60.10
2018-12-14T21:12:36.717Z,60.10
2018-12-14T21:15:06.180Z,60.00
2018-12-14T21:17:34.582Z,60.00
2018-12-14T21:20:02.639Z,59.90
2018-12-14T21:22:30.715Z,59.90
2018-12-14T21:24:59.262Z,59.90
2018-12-14T21:27:27.332Z,59.90
2018-12-14T21:29:55.405Z,59.90
2018-12-14T21:32:23.489Z,59.80
2018-12-14T21:34:51.582Z,59.80
2018-12-14T21:37:19.647Z,59.80
2018-12-14T21:39:48.111Z,59.80
2018-12-14T21:42:16.189Z,59.70
2018-12-14T21:44:44.263Z,59.60
2018-12-14T21:47:12.344Z,59.60
2018-12-14T21:49:40.415Z,60.20
2018-12-14T21:52:08.489Z,59.60
2018-12-14T21:54:36.576Z,59.60
2018-12-14T21:57:04.645Z,59.60
2018-12-14T21:59:32.803Z,59.70
2018-12-14T22:02:01.167Z,59.70
2018-12-14T22:04:29.249Z,59.80
2018-12-14T22:06:57.345Z,59.80
2018-12-14T22:09:25.432Z,59.80
2018-12-14T22:11:53.504Z,59.80
2018-12-14T22:14:21.578Z,59.80
2018-12-14T22:16:49.646Z,59.80
2018-12-14T22:19:17.703Z,59.80
2018-12-14T22:21:45.768Z,59.80
2018-12-14T22:24:14.233Z,59.80
2018-12-14T22:26:42.592Z,59.80
2018-12-14T22:29:10.668Z,59.80
2018-12-14T22:31:38.747Z,59.70
2018-12-14T22:34:06.803Z,59.70
2018-12-14T22:36:34.879Z,59.70
2018-12-14T22:39:04.544Z,59.70
2018-12-14T22:41:32.616Z,59.70
2018-12-14T22:44:00.687Z,59.60
2018-12-14T22:46:28.804Z,59.70
2018-12-14T22:48:56.872Z,59.70
2018-12-14T22:51:24.949Z,59.60
2018-12-14T22:53:53.023Z,59.60
2018-12-14T22:56:21.208Z,59.50
2018-12-14T22:58:49.284Z,59.70
2018-12-14T23:01:17.391Z,59.70
2018-12-14T23:03:45.447Z,59.70
2018-12-14T23:06:13.540Z,59.60
2018-12-14T23:08:41.650Z,59.70
2018-12-14T23:11:09.768Z,59.70
2018-12-14T23:13:37.837Z,59.80
2018-12-14T23:16:05.924Z,59.80
2018-12-14T23:18:33.977Z,59.80
2018-12-14T23:21:02.053Z,59.80
2018-12-14T23:23:30.121Z,59.80
2018-12-14T23:25:59.732Z,59.80
2018-12-14T23:28:28.072Z,59.80
2018-12-14T23:30:56.663Z,59.80
2018-12-14T23:33:24.765Z,59.80
2018-12-14T23:35:52.831Z,59.60
2018-12-14T23:38:20.900Z,59.60
2018-12-14T23:40:48.971Z,59.50
2018-12-14T23:43:17.032Z,59.50
2018-12-14T23:45:45.203Z,59.50
2018-12-14T23:48:13.268Z,59.50
2018-12-14T23:50:41.345Z,59.90
2018-12-14T23:53:09.563Z,59.50
2018-12-14T23:55:37.964Z,59.40
2018-12-14T23:58:06.031Z,59.50
